Terminal Aerodrome Forecast
Issued by NWS

Home | Current Version | Previous Version | Text Only | Print | Product List | Glossary On
Versions: 1 2 3 4 5 6 7 8 9 10 11 12 13 14 15 16
000
FTUS43 KGRB 312331
TAFATW
TAF
KATW 312331Z 0100/0124 13008KT P6SM SCT035 BKN080
      TEMPO 0100/0103 -SHRA BKN035
     FM010700 14005KT P6SM -SHRA OVC050
     FM011100 16007KT 5SM SHRA OVC012
     FM011300 16007KT 3SM SHRA BKN007 OVC012
     FM011600 18008KT 6SM -SHRA BKN035 OVC060
     FM011800 18009KT P6SM OVC120
     FM012300 23009KT P6SM SCT250=

USA.gov is the U.S. government's official web portal to all federal, state and local government web resources and services.